createdAt,value
2018-09-10T00:00:52.889Z,8.94
2018-09-10T00:01:52.851Z,7.23
2018-09-10T00:02:52.840Z,7.14
2018-09-10T00:03:52.765Z,4.28
2018-09-10T00:04:52.740Z,2.38
2018-09-10T00:05:52.697Z,1.23
2018-09-10T00:06:52.665Z,2.28
2018-09-10T00:07:52.621Z,4.85
2018-09-10T00:08:52.601Z,5.80
2018-09-10T00:09:52.537Z,8.09
2018-09-10T00:10:52.528Z,11.23
2018-09-10T00:11:52.486Z,13.70
2018-09-10T00:12:52.415Z,13.70
2018-09-10T00:13:52.390Z,15.61
2018-09-10T00:14:52.408Z,10.75
2018-09-10T00:15:52.339Z,9.52
2018-09-10T00:16:52.282Z,9.33
2018-09-10T00:17:52.224Z,10.08
2018-09-10T00:18:52.201Z,10.85
2018-09-10T00:19:52.242Z,15.03
2018-09-10T00:20:52.116Z,13.80
2018-09-10T00:21:52.089Z,12.18
2018-09-10T00:22:52.075Z,11.71
2018-09-10T00:23:52.021Z,7.04
2018-09-10T00:24:51.979Z,4.94
2018-09-10T00:25:51.915Z,6.18
2018-09-10T00:26:51.930Z,8.47
2018-09-10T00:27:51.917Z,11.32
2018-09-10T00:28:51.850Z,13.23
2018-09-10T00:29:51.777Z,7.71
2018-09-10T00:30:51.787Z,4.57
2018-09-10T00:31:51.749Z,3.90
2018-09-10T00:32:51.658Z,4.38
2018-09-10T00:33:51.647Z,5.90
2018-09-10T00:34:51.581Z,5.90
2018-09-10T00:35:51.559Z,7.42
2018-09-10T00:36:51.538Z,6.28
2018-09-10T00:37:51.476Z,5.90
2018-09-10T00:38:51.485Z,7.32
2018-09-10T00:39:51.389Z,8.47
2018-09-10T00:40:51.345Z,7.42
2018-09-10T00:41:52.185Z,7.14
2018-09-10T00:42:51.268Z,9.23
2018-09-10T00:43:51.228Z,10.37
2018-09-10T00:44:51.186Z,11.98
2018-09-10T00:45:51.142Z,12.74
2018-09-10T00:46:51.146Z,8.47
2018-09-10T00:47:51.190Z,6.56
2018-09-10T00:48:51.054Z,5.90
2018-09-10T00:49:50.994Z,5.23
2018-09-10T00:50:50.981Z,4.28
2018-09-10T00:51:50.910Z,4.57
2018-09-10T00:52:50.881Z,5.80
2018-09-10T00:53:50.838Z,6.66
2018-09-10T00:54:50.804Z,6.47
2018-09-10T00:55:50.769Z,7.23
2018-09-10T00:56:50.739Z,8.56
2018-09-10T00:57:50.676Z,8.84
2018-09-10T00:58:50.654Z,9.70
2018-09-10T00:59:50.602Z,9.61
2018-09-10T01:00:50.648Z,9.80
2018-09-10T01:01:50.542Z,10.65
2018-09-10T01:02:50.480Z,10.46
2018-09-10T01:03:50.435Z,9.70
2018-09-10T01:04:50.468Z,9.70
2018-09-10T01:05:50.358Z,9.89
2018-09-10T01:06:50.322Z,7.42
2018-09-10T01:07:50.291Z,6.56
2018-09-10T01:08:50.266Z,5.99
2018-09-10T01:09:50.204Z,7.99
2018-09-10T01:10:50.191Z,7.70
2018-09-10T01:11:50.136Z,7.99
2018-09-10T01:12:50.092Z,10.17
2018-09-10T01:13:50.048Z,10.84
2018-09-10T01:14:50.015Z,12.08
2018-09-10T01:15:49.989Z,11.22
2018-09-10T01:16:49.928Z,13.03
2018-09-10T01:17:49.915Z,16.83
2018-09-10T01:18:49.853Z,16.83
2018-09-10T01:19:49.873Z,14.73
2018-09-10T01:20:49.772Z,10.17
2018-09-10T01:21:49.796Z,8.94
2018-09-10T01:22:49.707Z,8.84
2018-09-10T01:23:49.709Z,8.84
2018-09-10T01:24:49.622Z,9.51
2018-09-10T01:25:49.593Z,12.36
2018-09-10T01:26:49.627Z,15.40
2018-09-10T01:27:49.509Z,16.35
2018-09-10T01:28:49.464Z,15.50
2018-09-10T01:29:49.430Z,9.12
2018-09-10T01:30:49.399Z,5.90
2018-09-10T01:31:49.340Z,5.61
2018-09-10T01:32:49.306Z,5.99
2018-09-10T01:33:49.259Z,6.09
2018-09-10T01:34:49.290Z,5.90
2018-09-10T01:35:49.195Z,5.71
2018-09-10T01:36:49.167Z,4.75
2018-09-10T01:37:49.120Z,2.95
2018-09-10T01:38:49.074Z,2.95
2018-09-10T01:39:49.037Z,3.61
2018-09-10T01:40:48.990Z,5.32
2018-09-10T01:41:48.959Z,6.37
2018-09-10T01:42:48.930Z,5.71
2018-09-10T01:43:48.881Z,5.51
2018-09-10T01:44:48.861Z,5.71
2018-09-10T01:45:48.859Z,7.23
2018-09-10T01:46:48.795Z,8.36
2018-09-10T01:47:48.714Z,8.65
2018-09-10T01:48:48.692Z,10.64
2018-09-10T01:49:48.646Z,10.17
2018-09-10T01:50:48.600Z,11.12
2018-09-10T01:51:48.555Z,12.55
2018-09-10T01:52:48.513Z,12.45
2018-09-10T01:53:48.488Z,8.17
2018-09-10T01:54:48.449Z,5.51
2018-09-10T01:55:48.426Z,5.61
2018-09-10T01:56:48.364Z,6.75
2018-09-10T01:57:48.343Z,6.56
2018-09-10T01:58:48.286Z,5.41
2018-09-10T01:59:48.257Z,4.94
2018-09-10T02:00:48.205Z,5.51
2018-09-10T02:01:48.257Z,5.89
2018-09-10T02:02:48.131Z,6.18
2018-09-10T02:03:48.101Z,6.65
2018-09-10T02:04:48.115Z,7.60
2018-09-10T02:05:48.082Z,7.22
2018-09-10T02:06:47.973Z,5.22
2018-09-10T02:07:47.976Z,5.13
2018-09-10T02:08:47.883Z,6.56
2018-09-10T02:09:47.875Z,5.80
2018-09-10T02:10:47.814Z,2.28
2018-09-10T02:11:47.790Z,2.66
2018-09-10T02:12:47.796Z,3.99
2018-09-10T02:13:47.691Z,5.99
2018-09-10T02:14:47.703Z,6.46
2018-09-10T02:15:47.716Z,4.66
2018-09-10T02:16:47.605Z,3.89
2018-09-10T02:17:47.537Z,3.42
2018-09-10T02:18:47.503Z,4.66
2018-09-10T02:19:47.457Z,4.66
2018-09-10T02:20:47.420Z,5.99
2018-09-10T02:21:47.439Z,8.65
2018-09-10T02:22:47.335Z,10.27
2018-09-10T02:23:47.300Z,11.31
2018-09-10T02:24:47.346Z,10.74
2018-09-10T02:25:47.267Z,8.56
2018-09-10T02:26:47.181Z,6.84
2018-09-10T02:27:47.218Z,5.89
2018-09-10T02:28:47.154Z,6.18
2018-09-10T02:29:47.072Z,6.09
2018-09-10T02:30:47.029Z,6.46
2018-09-10T02:31:46.989Z,6.65
2018-09-10T02:32:46.947Z,6.18
2018-09-10T02:33:46.906Z,4.75
2018-09-10T02:34:46.868Z,4.37
2018-09-10T02:35:46.842Z,2.47
2018-09-10T02:36:46.787Z,1.90
2018-09-10T02:37:46.751Z,3.14
2018-09-10T02:38:46.702Z,4.75
2018-09-10T02:39:46.666Z,5.70
2018-09-10T02:40:46.622Z,6.75
2018-09-10T02:41:46.593Z,7.89
2018-09-10T02:42:46.544Z,7.51
2018-09-10T02:43:46.504Z,6.37
2018-09-10T02:44:46.534Z,4.85
2018-09-10T02:45:46.439Z,4.37
2018-09-10T02:46:46.493Z,5.99
2018-09-10T02:47:46.344Z,7.03
2018-09-10T02:48:46.308Z,7.70
2018-09-10T02:49:46.277Z,8.55
2018-09-10T02:50:46.241Z,10.64
2018-09-10T02:51:46.180Z,11.88
2018-09-10T02:52:46.158Z,12.92
2018-09-10T02:53:46.127Z,14.54
2018-09-10T02:54:46.128Z,11.02
2018-09-10T02:55:46.030Z,7.03
2018-09-10T02:56:45.982Z,6.93
2018-09-10T02:57:45.958Z,7.89
2018-09-10T02:58:45.905Z,7.51
2018-09-10T02:59:45.864Z,6.65
2018-09-10T03:00:45.826Z,8.17
2018-09-10T03:01:45.797Z,9.50
2018-09-10T03:02:45.743Z,12.35
2018-09-10T03:03:45.729Z,12.92
2018-09-10T03:04:45.684Z,14.54
2018-09-10T03:05:45.645Z,14.44
2018-09-10T03:06:45.589Z,16.44
2018-09-10T03:07:45.594Z,11.50
2018-09-10T03:08:45.523Z,8.07
2018-09-10T03:09:45.529Z,10.26
2018-09-10T03:10:45.432Z,12.16
2018-09-10T03:11:45.391Z,12.82
2018-09-10T03:12:45.363Z,9.31
2018-09-10T03:13:45.322Z,6.46
2018-09-10T03:14:45.275Z,5.98
2018-09-10T03:15:45.229Z,8.45
2018-09-10T03:16:45.189Z,9.97
2018-09-10T03:17:45.180Z,10.26
2018-09-10T03:18:45.123Z,9.41
2018-09-10T03:19:45.072Z,8.64
2018-09-10T03:20:45.055Z,6.56
2018-09-10T03:21:45.003Z,3.61
2018-09-10T03:22:44.953Z,3.70
2018-09-10T03:23:44.909Z,3.89
2018-09-10T03:24:44.899Z,3.80
2018-09-10T03:25:44.838Z,4.75
2018-09-10T03:26:44.800Z,5.89
2018-09-10T03:27:44.873Z,5.60
2018-09-10T03:28:44.721Z,5.98
2018-09-10T03:29:44.724Z,6.56
2018-09-10T03:30:44.637Z,8.84
2018-09-10T03:31:44.615Z,9.12
2018-09-10T03:32:44.570Z,8.84
2018-09-10T03:33:44.519Z,8.74
2018-09-10T03:34:44.471Z,8.93
2018-09-10T03:35:44.432Z,6.56
2018-09-10T03:36:44.397Z,6.37
2018-09-10T03:37:44.352Z,6.46
2018-09-10T03:38:44.319Z,5.51
2018-09-10T03:39:44.269Z,5.60
2018-09-10T03:40:44.249Z,5.98
2018-09-10T03:41:44.200Z,6.46
2018-09-10T03:42:44.171Z,7.51
2018-09-10T03:43:44.139Z,7.22
2018-09-10T03:44:44.154Z,6.08
2018-09-10T03:45:44.049Z,5.51
2018-09-10T03:46:44.003Z,5.60
2018-09-10T03:47:43.963Z,5.13
2018-09-10T03:48:43.910Z,5.79
2018-09-10T03:49:43.868Z,6.37
2018-09-10T03:50:43.840Z,6.08
2018-09-10T03:51:43.788Z,5.79
2018-09-10T03:52:43.756Z,6.84
2018-09-10T03:53:43.724Z,8.93
2018-09-10T03:54:43.675Z,10.07
2018-09-10T03:55:43.661Z,8.36
2018-09-10T03:56:43.594Z,5.41
2018-09-10T03:57:43.563Z,3.42
2018-09-10T03:58:43.523Z,3.70
2018-09-10T03:59:43.483Z,4.94
2018-09-10T04:00:43.430Z,6.74
2018-09-10T04:01:43.404Z,8.17
2018-09-10T04:02:43.349Z,9.78
2018-09-10T04:03:43.322Z,10.36
2018-09-10T04:04:43.291Z,9.78
2018-09-10T04:05:43.240Z,10.07
2018-09-10T04:06:43.201Z,7.89
2018-09-10T04:07:43.156Z,6.65
2018-09-10T04:08:43.161Z,5.32
2018-09-10T04:09:43.075Z,3.61
2018-09-10T04:10:43.058Z,3.99
2018-09-10T04:11:43.017Z,5.51
2018-09-10T04:12:42.968Z,4.75
2018-09-10T04:13:42.921Z,5.04
2018-09-10T04:14:42.884Z,6.08
2018-09-10T04:15:42.828Z,6.08
2018-09-10T04:16:42.848Z,5.79
2018-09-10T04:17:42.825Z,6.46
2018-09-10T04:18:42.745Z,6.56
2018-09-10T04:19:42.680Z,7.70
2018-09-10T04:20:42.631Z,7.70
2018-09-10T04:21:42.599Z,8.74
2018-09-10T04:22:42.643Z,9.97
2018-09-10T04:23:42.523Z,10.36
2018-09-10T04:24:42.471Z,7.70
2018-09-10T04:25:42.448Z,5.51
2018-09-10T04:26:42.402Z,4.08
2018-09-10T04:27:42.575Z,3.70
2018-09-10T04:28:42.373Z,3.52
2018-09-10T04:29:42.331Z,3.70
2018-09-10T04:30:42.331Z,3.61
2018-09-10T04:31:42.265Z,3.99
2018-09-10T04:32:42.163Z,3.70
2018-09-10T04:33:42.103Z,2.94
2018-09-10T04:34:42.069Z,3.61
2018-09-10T04:35:42.030Z,5.04
2018-09-10T04:36:42.007Z,6.09
2018-09-10T04:37:42.006Z,6.18
2018-09-10T04:38:41.917Z,6.93
2018-09-10T04:39:41.876Z,6.74
2018-09-10T04:40:41.829Z,6.27
2018-09-10T04:41:41.810Z,5.61
2018-09-10T04:42:41.785Z,5.41
2018-09-10T04:43:41.706Z,5.51
2018-09-10T04:44:41.719Z,6.37
2018-09-10T04:45:41.634Z,7.51
2018-09-10T04:46:41.594Z,8.08
2018-09-10T04:47:41.654Z,9.41
2018-09-10T04:48:41.506Z,11.11
2018-09-10T04:49:41.568Z,10.36
2018-09-10T04:50:41.436Z,8.27
2018-09-10T04:51:41.414Z,7.03
2018-09-10T04:52:41.355Z,5.51
2018-09-10T04:53:41.352Z,4.37
2018-09-10T04:54:41.332Z,5.99
2018-09-10T04:55:41.227Z,8.56
2018-09-10T04:56:41.247Z,10.27
2018-09-10T04:57:41.239Z,10.83
2018-09-10T04:58:41.121Z,9.79
2018-09-10T04:59:41.138Z,8.65
2018-09-10T05:00:41.096Z,8.94
2018-09-10T05:01:41.031Z,9.03
2018-09-10T05:02:40.971Z,10.08
2018-09-10T05:03:40.984Z,10.27
2018-09-10T05:04:40.958Z,12.55
2018-09-10T05:05:40.839Z,15.59
2018-09-10T05:06:40.851Z,15.59
2018-09-10T05:07:40.797Z,18.35
2018-09-10T05:08:40.750Z,19.68
2018-09-10T05:09:40.712Z,18.35
2018-09-10T05:10:40.638Z,20.63
2018-09-10T05:11:40.641Z,18.06
2018-09-10T05:12:40.564Z,15.78
2018-09-10T05:13:40.524Z,18.82
2018-09-10T05:14:40.492Z,20.63
2018-09-10T05:15:40.456Z,19.01
2018-09-10T05:16:40.399Z,16.08
2018-09-10T05:17:40.367Z,14.45
2018-09-10T05:18:40.458Z,12.84
2018-09-10T05:19:40.293Z,13.51
2018-09-10T05:20:40.260Z,14.45
2018-09-10T05:21:40.207Z,14.07
2018-09-10T05:22:40.188Z,13.03
2018-09-10T05:23:40.126Z,9.80
2018-09-10T05:24:40.189Z,9.80
2018-09-10T05:25:40.119Z,9.89
2018-09-10T05:26:40.091Z,10.65
2018-09-10T05:27:39.969Z,11.22
2018-09-10T05:28:39.953Z,10.56
2018-09-10T05:29:39.909Z,11.41
2018-09-10T05:30:39.861Z,12.55
2018-09-10T05:31:39.817Z,15.60
2018-09-10T05:32:39.784Z,15.41
2018-09-10T05:33:39.729Z,15.31
2018-09-10T05:34:39.777Z,16.35
2018-09-10T05:35:39.651Z,18.26
2018-09-10T05:36:39.661Z,22.45
2018-09-10T05:37:39.575Z,17.97
2018-09-10T05:38:39.554Z,10.75
2018-09-10T05:39:39.506Z,7.13
2018-09-10T05:40:39.461Z,7.70
2018-09-10T05:41:39.557Z,8.84
2018-09-10T05:42:39.410Z,9.51
2018-09-10T05:43:39.386Z,10.94
2018-09-10T05:44:39.340Z,12.55
2018-09-10T05:45:39.252Z,10.65
2018-09-10T05:46:39.255Z,9.70
2018-09-10T05:47:39.239Z,11.32
2018-09-10T05:48:39.232Z,14.26
2018-09-10T05:49:39.104Z,15.41
2018-09-10T05:50:39.072Z,18.07
2018-09-10T05:51:39.015Z,16.93
2018-09-10T05:52:38.988Z,15.79
2018-09-10T05:53:38.942Z,14.55
2018-09-10T05:54:38.901Z,11.79
2018-09-10T05:55:38.957Z,9.51
2018-09-10T05:56:38.829Z,9.89
2018-09-10T05:57:38.793Z,9.61
2018-09-10T05:58:38.742Z,10.84
2018-09-10T05:59:38.715Z,9.51
2018-09-10T06:00:38.661Z,8.18
2018-09-10T06:01:38.635Z,7.71
2018-09-10T06:02:38.591Z,7.51
2018-09-10T06:03:38.565Z,7.90
2018-09-10T06:04:38.504Z,8.09
2018-09-10T06:05:38.513Z,8.94
2018-09-10T06:06:38.488Z,9.52
2018-09-10T06:07:38.444Z,10.09
2018-09-10T06:08:38.432Z,13.04
2018-09-10T06:09:38.363Z,14.57
2018-09-10T06:10:38.415Z,13.81
2018-09-10T06:11:38.250Z,13.14
2018-09-10T06:12:38.219Z,14.76
2018-09-10T06:13:38.159Z,12.95
2018-09-10T06:14:38.181Z,13.90
2018-09-10T06:15:38.102Z,15.14
2018-09-10T06:16:38.053Z,16.09
2018-09-10T06:17:38.013Z,15.80
2018-09-10T06:18:37.981Z,15.23
2018-09-10T06:19:37.960Z,14.66
2018-09-10T06:20:37.917Z,15.80
2018-09-10T06:21:37.888Z,18.29
2018-09-10T06:22:37.807Z,18.95
2018-09-10T06:23:37.768Z,20.76
2018-09-10T06:24:37.735Z,20.29
2018-09-10T06:25:37.747Z,18.77
2018-09-10T06:26:37.721Z,16.86
2018-09-10T06:27:37.636Z,15.72
2018-09-10T06:28:37.569Z,14.76
2018-09-10T06:29:37.528Z,13.71
2018-09-10T06:30:37.575Z,14.58
2018-09-10T06:31:37.492Z,14.19
2018-09-10T06:32:37.439Z,13.06
2018-09-10T06:33:37.393Z,12.87
2018-09-10T06:34:37.369Z,16.96
2018-09-10T06:35:37.451Z,20.59
2018-09-10T06:36:37.282Z,19.06
2018-09-10T06:37:37.259Z,20.49
2018-09-10T06:38:37.191Z,17.72
2018-09-10T06:39:37.160Z,16.49
2018-09-10T06:40:37.129Z,16.97
2018-09-10T06:41:37.111Z,17.93
2018-09-10T06:42:37.133Z,21.36
2018-09-10T06:43:37.011Z,22.50
2018-09-10T06:44:37.015Z,28.91
2018-09-10T06:45:36.933Z,31.39
2018-09-10T06:46:36.922Z,38.45
2018-09-10T06:47:36.875Z,38.35
2018-09-10T06:48:36.844Z,39.02
2018-09-10T06:49:36.816Z,34.46
2018-09-10T06:50:36.745Z,33.27
2018-09-10T06:51:36.695Z,28.15
2018-09-10T06:52:36.674Z,75.04
2018-09-10T06:53:36.685Z,99.99
2018-09-10T06:54:36.606Z,99.99
2018-09-10T06:55:36.595Z,99.99
2018-09-10T06:56:36.541Z,99.99
2018-09-10T06:57:36.489Z,99.99
2018-09-10T06:58:36.542Z,99.99
2018-09-10T06:59:36.518Z,99.99
2018-09-10T07:00:36.454Z,99.99
2018-09-10T07:01:36.356Z,99.99
2018-09-10T07:02:36.329Z,99.99
2018-09-10T07:03:36.319Z,99.99
2018-09-10T07:04:36.292Z,99.99
2018-09-10T07:05:36.246Z,99.99
2018-09-10T07:06:36.346Z,99.99
2018-09-10T07:07:36.195Z,99.99
2018-09-10T07:08:36.166Z,99.99
2018-09-10T07:09:36.129Z,99.99
2018-09-10T07:10:36.117Z,99.99
2018-09-10T07:11:36.066Z,99.99
2018-09-10T07:12:36.053Z,99.99
2018-09-10T07:13:36.067Z,93.27
2018-09-10T07:14:36.052Z,91.28
2018-09-10T07:15:35.993Z,99.99
2018-09-10T07:16:35.922Z,89.69
2018-09-10T07:17:35.937Z,83.11
2018-09-10T07:18:35.949Z,91.33
2018-09-10T07:19:35.844Z,83.01
2018-09-10T07:20:35.836Z,83.53
2018-09-10T07:21:35.826Z,84.69
2018-09-10T07:22:35.770Z,79.85
2018-09-10T07:23:35.738Z,79.08
2018-09-10T07:24:35.730Z,80.67
2018-09-10T07:25:35.709Z,77.19
2018-09-10T07:26:35.677Z,78.92
2018-09-10T07:27:35.674Z,76.60
2018-09-10T07:28:35.635Z,80.17
2018-09-10T07:29:35.594Z,76.48
2018-09-10T07:30:35.590Z,76.29
2018-09-10T07:31:38.379Z,73.58
2018-09-10T07:32:35.536Z,72.12
2018-09-10T07:33:35.519Z,73.71
2018-09-10T07:34:35.586Z,74.10
2018-09-10T07:35:35.527Z,74.33
2018-09-10T07:36:35.457Z,74.65
2018-09-10T07:37:35.457Z,71.97
2018-09-10T07:38:35.421Z,71.68
2018-09-10T07:39:35.396Z,70.83
2018-09-10T07:40:35.374Z,72.09
2018-09-10T07:41:35.350Z,72.83
2018-09-10T07:42:35.334Z,74.45
2018-09-10T07:43:35.337Z,75.09
2018-09-10T07:44:35.282Z,77.90
2018-09-10T07:45:35.278Z,77.61
2018-09-10T07:46:35.245Z,79.64
2018-09-10T07:47:35.234Z,75.77
2018-09-10T07:48:35.210Z,73.77
2018-09-10T07:49:35.203Z,70.83
2018-09-10T07:50:35.149Z,75.44
2018-09-10T07:51:35.128Z,74.96
2018-09-10T07:52:35.140Z,73.53
2018-09-10T07:53:35.105Z,74.59
2018-09-10T07:54:35.143Z,84.90
2018-09-10T07:55:35.032Z,89.93
2018-09-10T07:56:35.013Z,80.36
2018-09-10T07:57:34.980Z,75.91
2018-09-10T07:58:34.962Z,77.94
2018-09-10T07:59:34.950Z,77.90
2018-09-10T08:00:34.919Z,84.19
2018-09-10T08:01:34.919Z,78.77
2018-09-10T08:02:34.877Z,87.47
2018-09-10T08:03:34.874Z,84.57
2018-09-10T08:04:34.827Z,88.57
2018-09-10T08:05:34.803Z,88.96
2018-09-10T08:06:34.801Z,92.74
2018-09-10T08:07:34.807Z,84.71
2018-09-10T08:08:34.731Z,79.29
2018-09-10T08:09:34.787Z,91.96
2018-09-10T08:10:34.720Z,89.64
2018-09-10T08:11:34.804Z,84.13
2018-09-10T08:12:34.644Z,73.10
2018-09-10T08:13:34.624Z,83.16
2018-09-10T08:14:34.598Z,86.30
2018-09-10T08:15:34.576Z,70.78
2018-09-10T08:16:34.576Z,67.33
2018-09-10T08:17:34.538Z,72.46
2018-09-10T08:18:34.490Z,76.04
2018-09-10T08:19:34.460Z,70.62
2018-09-10T08:20:34.452Z,77.20
2018-09-10T08:21:34.422Z,82.14
2018-09-10T08:22:34.381Z,80.79
2018-09-10T08:23:34.365Z,80.69
2018-09-10T08:24:34.455Z,76.53
2018-09-10T08:25:34.315Z,68.37
2018-09-10T08:26:34.301Z,70.10
2018-09-10T08:27:34.247Z,71.94
2018-09-10T08:28:34.262Z,79.20
2018-09-10T08:29:34.213Z,81.13
2018-09-10T08:30:34.215Z,70.68
2018-09-10T08:31:34.168Z,70.34
2018-09-10T08:32:34.129Z,86.78
2018-09-10T08:33:34.133Z,81.37
2018-09-10T08:34:34.104Z,71.98
2018-09-10T08:35:34.057Z,88.91
2018-09-10T08:36:34.047Z,87.95
2018-09-10T08:37:34.030Z,82.53
2018-09-10T08:38:33.959Z,83.59
2018-09-10T08:39:33.959Z,80.49
2018-09-10T08:40:33.920Z,90.07
2018-09-10T08:41:33.886Z,85.91
2018-09-10T08:42:33.878Z,89.15
2018-09-10T08:43:33.830Z,80.44
2018-09-10T08:44:33.839Z,82.47
2018-09-10T08:45:33.793Z,76.12
2018-09-10T08:46:33.785Z,82.03
2018-09-10T08:47:33.727Z,83.00
2018-09-10T08:48:33.708Z,80.47
2018-09-10T08:49:33.710Z,84.25
2018-09-10T08:50:33.688Z,78.92
2018-09-10T08:51:33.634Z,80.32
2018-09-10T08:52:33.693Z,78.97
2018-09-10T08:53:33.560Z,77.70
2018-09-10T08:54:33.805Z,69.43
2018-09-10T08:55:33.643Z,72.18
2018-09-10T08:56:33.586Z,73.64
2018-09-10T08:57:33.451Z,79.10
2018-09-10T08:58:33.429Z,69.18
2018-09-10T08:59:33.410Z,64.75
2018-09-10T09:00:33.475Z,66.92
2018-09-10T09:01:33.371Z,65.27
2018-09-10T09:02:33.334Z,71.67
2018-09-10T09:03:33.325Z,62.95
2018-09-10T09:04:33.271Z,61.00
2018-09-10T09:05:33.244Z,59.33
2018-09-10T09:06:33.250Z,60.91
2018-09-10T09:07:33.200Z,59.16
2018-09-10T09:08:33.191Z,67.60
2018-09-10T09:09:33.156Z,73.22
2018-09-10T09:10:33.182Z,68.31
2018-09-10T09:11:33.096Z,74.33
2018-09-10T09:12:33.058Z,73.55
2018-09-10T09:13:33.042Z,69.57
2018-09-10T09:14:33.028Z,64.82
2018-09-10T09:15:33.004Z,63.75
2018-09-10T09:16:33.022Z,59.36
2018-09-10T09:17:33.030Z,59.06
2018-09-10T09:18:32.931Z,66.82
2018-09-10T09:19:32.883Z,67.11
2018-09-10T09:20:32.876Z,64.72
2018-09-10T09:21:32.831Z,66.95
2018-09-10T09:22:32.815Z,67.57
2018-09-10T09:23:32.831Z,61.42
2018-09-10T09:24:32.766Z,55.41
2018-09-10T09:25:32.748Z,57.06
2018-09-10T09:26:32.702Z,64.62
2018-09-10T09:27:32.676Z,58.48
2018-09-10T09:28:32.662Z,61.32
2018-09-10T09:29:32.639Z,68.15
2018-09-10T09:30:32.626Z,65.98
2018-09-10T09:31:32.590Z,60.08
2018-09-10T09:32:32.566Z,61.25
2018-09-10T09:33:32.543Z,63.29
2018-09-10T09:34:32.506Z,63.39
2018-09-10T09:35:32.499Z,61.51
2018-09-10T09:36:32.469Z,58.91
2018-09-10T09:37:32.439Z,54.82
2018-09-10T09:38:32.452Z,54.21
2018-09-10T09:39:32.408Z,60.36
2018-09-10T09:40:32.374Z,51.99
2018-09-10T09:41:32.333Z,50.24
2018-09-10T09:42:32.406Z,52.19
2018-09-10T09:43:32.382Z,52.50
2018-09-10T09:44:32.268Z,53.85
2018-09-10T09:45:32.264Z,48.58
2018-09-10T09:46:32.240Z,47.80
2018-09-10T09:47:32.195Z,46.61
2018-09-10T09:48:32.184Z,46.23
2018-09-10T09:49:32.166Z,46.32
2018-09-10T09:50:32.135Z,48.10
2018-09-10T09:51:32.111Z,48.36
2018-09-10T09:52:32.098Z,47.05
2018-09-10T09:53:32.081Z,47.39
2018-09-10T09:54:32.047Z,46.61
2018-09-10T09:55:32.039Z,46.59
2018-09-10T09:56:32.060Z,46.91
2018-09-10T09:57:31.981Z,50.14
2018-09-10T09:58:31.964Z,53.38
2018-09-10T09:59:31.992Z,45.78
2018-09-10T10:00:31.916Z,45.67
2018-09-10T10:01:31.891Z,46.73
2018-09-10T10:02:31.880Z,48.41
2018-09-10T10:03:31.865Z,47.44
2018-09-10T10:04:31.948Z,48.78
2018-09-10T10:05:31.801Z,52.19
2018-09-10T10:06:31.785Z,49.66
2018-09-10T10:07:31.763Z,49.12
2018-09-10T10:08:31.745Z,48.71
2018-09-10T10:09:31.715Z,49.61
2018-09-10T10:10:31.703Z,53.40
2018-09-10T10:11:31.693Z,54.21
2018-09-10T10:12:31.713Z,48.68
2018-09-10T10:13:31.665Z,49.44
2018-09-10T10:14:31.612Z,51.39
2018-09-10T10:15:31.610Z,50.02
2018-09-10T10:16:31.662Z,48.13
2018-09-10T10:17:31.547Z,57.46
2018-09-10T10:18:31.552Z,50.97
2018-09-10T10:19:31.493Z,47.69
2018-09-10T10:20:31.469Z,46.71
2018-09-10T10:21:31.473Z,46.81
2018-09-10T10:22:31.427Z,50.12
2018-09-10T10:23:31.404Z,48.00
2018-09-10T10:24:31.384Z,48.88
2018-09-10T10:25:31.370Z,45.98
2018-09-10T10:26:31.341Z,45.61
2018-09-10T10:27:31.330Z,45.49
2018-09-10T10:28:31.298Z,46.17
2018-09-10T10:29:31.287Z,45.47
2018-09-10T10:30:31.263Z,46.10
2018-09-10T10:31:31.229Z,46.30
2018-09-10T10:32:31.234Z,46.10
2018-09-10T10:33:31.187Z,49.78
2018-09-10T10:34:31.172Z,47.27
2018-09-10T10:35:31.161Z,46.97
2018-09-10T10:36:31.122Z,45.95
2018-09-10T10:37:31.112Z,46.48
2018-09-10T10:38:31.093Z,44.16
2018-09-10T10:39:31.079Z,44.40
2018-09-10T10:40:32.919Z,43.44
2018-09-10T10:41:31.017Z,39.41
2018-09-10T10:42:31.020Z,39.39
2018-09-10T10:43:30.993Z,41.25
2018-09-10T10:44:30.978Z,40.11
2018-09-10T10:45:30.945Z,41.86
2018-09-10T10:46:30.911Z,41.15
2018-09-10T10:47:30.965Z,41.93
2018-09-10T10:48:30.905Z,43.38
2018-09-10T10:49:30.868Z,43.28
2018-09-10T10:50:30.831Z,43.38
2018-09-10T10:51:30.828Z,42.94
2018-09-10T10:52:30.799Z,44.43
2018-09-10T10:53:30.777Z,45.48
2018-09-10T10:54:30.785Z,46.48
2018-09-10T10:55:30.756Z,44.63
2018-09-10T10:56:30.715Z,42.19
2018-09-10T10:57:30.737Z,43.24
2018-09-10T10:58:30.729Z,44.12
2018-09-10T10:59:30.695Z,41.87
2018-09-10T11:00:30.685Z,42.07
2018-09-10T11:01:30.661Z,43.43
2018-09-10T11:02:30.586Z,41.63
2018-09-10T11:03:30.571Z,40.86
2018-09-10T11:04:30.559Z,42.80
2018-09-10T11:05:30.542Z,41.46
2018-09-10T11:06:30.548Z,43.65
2018-09-10T11:07:30.511Z,40.84
2018-09-10T11:08:30.531Z,39.78
2018-09-10T11:09:30.468Z,39.86
2018-09-10T11:10:30.450Z,40.72
2018-09-10T11:11:30.451Z,43.36
2018-09-10T11:12:30.435Z,42.24
2018-09-10T11:13:30.379Z,42.75
2018-09-10T11:14:30.404Z,43.73
2018-09-10T11:15:30.339Z,41.85
2018-09-10T11:16:30.332Z,42.08
2018-09-10T11:17:30.293Z,44.01
2018-09-10T11:18:30.341Z,43.23
2018-09-10T11:19:30.278Z,43.62
2018-09-10T11:20:30.246Z,43.57
2018-09-10T11:21:30.211Z,45.49
2018-09-10T11:22:30.193Z,45.76
2018-09-10T11:23:30.218Z,46.08
2018-09-10T11:24:30.187Z,50.63
2018-09-10T11:25:30.130Z,44.79
2018-09-10T11:26:30.128Z,46.25
2018-09-10T11:27:30.122Z,44.40
2018-09-10T11:28:30.067Z,44.76
2018-09-10T11:29:30.084Z,47.30
2018-09-10T11:30:30.040Z,47.27
2018-09-10T11:31:29.997Z,46.51
2018-09-10T11:32:30.009Z,48.58
2018-09-10T11:33:29.980Z,45.10
2018-09-10T11:34:29.995Z,46.78
2018-09-10T11:35:29.912Z,46.90
2018-09-10T11:36:29.887Z,44.48
2018-09-10T11:37:29.881Z,47.51
2018-09-10T11:38:29.861Z,43.66
2018-09-10T11:39:29.844Z,43.27
2018-09-10T11:40:29.820Z,45.78
2018-09-10T11:41:29.834Z,46.59
2018-09-10T11:42:29.771Z,43.66
2018-09-10T11:43:29.788Z,43.12
2018-09-10T11:44:29.718Z,44.48
2018-09-10T11:45:29.762Z,42.34
2018-09-10T11:46:29.751Z,42.14
2018-09-10T11:47:29.651Z,40.80
2018-09-10T11:48:29.692Z,40.04
2018-09-10T11:49:29.631Z,41.02
2018-09-10T11:50:29.608Z,40.09
2018-09-10T11:51:29.593Z,41.44
2018-09-10T11:52:29.578Z,44.19
2018-09-10T11:53:29.542Z,45.39
2018-09-10T11:54:29.550Z,43.36
2018-09-10T11:55:29.549Z,43.33
2018-09-10T11:56:30.355Z,42.55
2018-09-10T11:57:29.500Z,42.07
2018-09-10T11:58:29.450Z,42.30
2018-09-10T11:59:29.418Z,43.47
2018-09-10T12:00:29.388Z,43.49
2018-09-10T12:01:29.368Z,43.39
2018-09-10T12:02:29.365Z,43.71
2018-09-10T12:03:29.347Z,45.26
2018-09-10T12:04:29.310Z,42.02
2018-09-10T12:05:29.297Z,43.57
2018-09-10T12:06:29.295Z,43.47
2018-09-10T12:07:29.254Z,43.54
2018-09-10T12:08:29.255Z,44.54
2018-09-10T12:09:29.210Z,46.34
2018-09-10T12:10:29.195Z,43.63
2018-09-10T12:11:29.163Z,40.99
2018-09-10T12:12:29.159Z,43.26
2018-09-10T12:13:29.198Z,42.11
2018-09-10T12:14:29.097Z,43.30
2018-09-10T12:15:29.073Z,40.95
2018-09-10T12:16:29.072Z,39.37
2018-09-10T12:17:29.030Z,42.21
2018-09-10T12:18:29.032Z,44.48
2018-09-10T12:19:29.011Z,41.93
2018-09-10T12:20:28.986Z,41.80
2018-09-10T12:21:28.969Z,44.31
2018-09-10T12:22:28.946Z,43.18
2018-09-10T12:23:28.909Z,43.35
2018-09-10T12:24:28.896Z,43.33
2018-09-10T12:25:28.881Z,44.30
2018-09-10T12:26:28.896Z,44.94
2018-09-10T12:27:28.852Z,45.11
2018-09-10T12:28:28.832Z,45.40
2018-09-10T12:29:28.810Z,46.98
2018-09-10T12:30:28.810Z,49.99
2018-09-10T12:31:28.754Z,45.42
2018-09-10T12:32:28.820Z,46.13
2018-09-10T12:33:28.744Z,46.64
2018-09-10T12:34:28.702Z,45.08
2018-09-10T12:37:02.443Z,43.85
2018-09-10T12:38:02.931Z,42.40
2018-09-10T12:39:56.784Z,42.61
2018-09-10T12:40:56.020Z,43.02
2018-09-10T12:42:49.101Z,43.71
2018-09-10T12:43:49.060Z,42.93
2018-09-10T12:45:44.128Z,45.58
2018-09-10T12:46:43.250Z,41.80
2018-09-10T12:48:36.743Z,43.89
2018-09-10T12:49:37.369Z,48.28
2018-09-10T12:51:29.711Z,40.11
2018-09-10T12:52:29.384Z,40.50
2018-09-10T12:54:22.812Z,40.80
2018-09-10T12:55:24.273Z,40.78
2018-09-10T12:57:17.954Z,42.54
2018-09-10T12:58:16.295Z,41.54
2018-09-10T13:00:12.469Z,42.06
2018-09-10T13:01:10.719Z,42.84
2018-09-10T13:03:04.397Z,48.34
2018-09-10T13:04:03.627Z,42.20
2018-09-10T13:05:57.520Z,46.22
2018-09-10T13:06:56.643Z,43.41
2018-09-10T13:08:50.551Z,50.75
2018-09-10T13:09:50.012Z,44.19
2018-09-10T13:11:45.083Z,49.44
2018-09-10T13:12:44.412Z,52.04
2018-09-10T13:14:38.749Z,43.04